createdAt,value
2019-03-13T00:00:03.716Z,199.60
2019-03-13T00:02:42.585Z,203.95
2019-03-13T00:05:19.225Z,201.03
2019-03-13T00:07:56.568Z,213.33
2019-03-13T00:10:33.105Z,187.00
2019-03-13T00:13:09.584Z,195.72
2019-03-13T00:15:49.545Z,213.65
2019-03-13T00:18:24.523Z,219.32
2019-03-13T00:21:01.168Z,220.88
2019-03-13T00:23:37.831Z,192.40
2019-03-13T00:26:15.152Z,231.53
2019-03-13T00:28:51.812Z,232.87
2019-03-13T00:31:28.381Z,211.03
2019-03-13T00:34:04.748Z,219.55
2019-03-13T00:36:41.742Z,210.65
2019-03-13T00:39:18.812Z,237.95
2019-03-13T00:41:56.057Z,244.82
2019-03-13T00:44:33.116Z,227.97
2019-03-13T00:47:09.833Z,238.95
2019-03-13T00:49:46.637Z,218.67
2019-03-13T00:52:22.875Z,234.10
2019-03-13T00:54:59.766Z,242.15
2019-03-13T00:57:36.561Z,227.68
2019-03-13T01:00:15.010Z,237.35
2019-03-13T01:02:51.633Z,220.33
2019-03-13T01:05:34.027Z,214.55
2019-03-13T01:08:10.919Z,221.45
2019-03-13T01:10:47.482Z,211.12
2019-03-13T01:13:24.336Z,206.35
2019-03-13T01:16:01.552Z,226.52
2019-03-13T01:18:38.243Z,252.45
2019-03-13T01:21:14.937Z,232.05
2019-03-13T01:23:52.403Z,230.37
2019-03-13T01:26:29.370Z,247.78
2019-03-13T01:29:05.612Z,236.00
2019-03-13T01:32:08.815Z,250.22
2019-03-13T01:34:50.894Z,247.00
2019-03-13T01:37:27.938Z,246.43
2019-03-13T01:40:04.350Z,252.47
2019-03-13T01:42:42.435Z,257.77
2019-03-13T01:45:19.102Z,255.50
2019-03-13T01:47:56.793Z,243.78
2019-03-13T01:50:33.547Z,247.65
2019-03-13T01:53:10.361Z,239.97
2019-03-13T01:55:48.625Z,246.30
2019-03-13T01:58:25.598Z,239.60
2019-03-13T02:01:02.606Z,253.10
2019-03-13T02:03:39.856Z,235.35
2019-03-13T02:06:16.641Z,225.07
2019-03-13T02:08:53.922Z,234.67
2019-03-13T02:11:31.044Z,227.82
2019-03-13T02:14:07.979Z,228.75
2019-03-13T02:16:44.875Z,221.77
2019-03-13T02:19:22.075Z,223.90
2019-03-13T02:21:58.651Z,213.00
2019-03-13T02:24:35.404Z,214.27
2019-03-13T02:27:12.108Z,214.42
2019-03-13T02:29:49.742Z,221.62
2019-03-13T02:32:26.675Z,226.50
2019-03-13T02:35:03.580Z,216.12
2019-03-13T02:37:41.345Z,227.70
2019-03-13T02:40:18.299Z,230.47
2019-03-13T02:42:54.986Z,225.93
2019-03-13T02:45:32.216Z,229.57
2019-03-13T02:48:08.926Z,235.55
2019-03-13T02:50:45.435Z,232.70
2019-03-13T02:53:22.104Z,227.10
2019-03-13T02:55:58.607Z,228.85
2019-03-13T02:58:35.356Z,212.90
2019-03-13T03:01:29.535Z,222.65
2019-03-13T03:04:08.765Z,221.70
2019-03-13T03:06:45.577Z,215.80
2019-03-13T03:09:22.205Z,220.42
2019-03-13T03:11:59.010Z,213.72
2019-03-13T03:14:36.115Z,215.12
2019-03-13T03:17:12.807Z,213.37
2019-03-13T03:19:49.594Z,204.00
2019-03-13T03:22:26.357Z,211.32
2019-03-13T03:25:03.505Z,204.05
2019-03-13T03:27:39.724Z,210.08
2019-03-13T03:30:19.223Z,198.87
2019-03-13T03:32:55.804Z,196.80
2019-03-13T03:35:32.603Z,193.80
2019-03-13T03:38:11.690Z,191.65
2019-03-13T03:40:48.249Z,189.00
2019-03-13T03:43:39.528Z,188.30
2019-03-13T03:46:02.507Z,193.17
2019-03-13T03:48:39.729Z,191.15
2019-03-13T03:51:17.633Z,191.75
2019-03-13T03:53:54.043Z,180.35
2019-03-13T03:56:31.094Z,191.55
2019-03-13T03:59:07.842Z,187.27
2019-03-13T04:01:44.808Z,181.57
2019-03-13T04:04:21.115Z,185.45
2019-03-13T04:06:59.611Z,181.82
2019-03-13T04:09:35.901Z,219.68
2019-03-13T04:12:14.054Z,179.38
2019-03-13T04:14:50.789Z,175.25
2019-03-13T04:17:27.527Z,180.15
2019-03-13T04:20:04.038Z,174.00
2019-03-13T04:22:41.723Z,167.80
2019-03-13T04:25:35.522Z,173.40
2019-03-13T04:28:13.080Z,170.43
2019-03-13T04:30:50.331Z,156.87
2019-03-13T04:33:28.377Z,164.88
2019-03-13T04:36:05.217Z,161.68
2019-03-13T04:38:41.779Z,157.90
2019-03-13T04:41:18.258Z,160.10
2019-03-13T04:43:56.463Z,160.97
2019-03-13T04:46:32.994Z,143.68
2019-03-13T04:49:10.574Z,146.77
2019-03-13T04:51:47.276Z,143.52
2019-03-13T04:54:24.457Z,134.80
2019-03-13T04:57:01.162Z,125.45
2019-03-13T04:59:37.759Z,129.18
2019-03-13T05:02:14.296Z,133.40
2019-03-13T05:04:51.498Z,120.55
2019-03-13T05:07:28.172Z,122.65
2019-03-13T05:10:04.544Z,94.58
2019-03-13T05:12:41.233Z,82.88
2019-03-13T05:15:17.863Z,97.15
2019-03-13T05:17:58.380Z,91.45
2019-03-13T05:20:35.166Z,71.70
2019-03-13T05:23:11.772Z,61.28
2019-03-13T05:25:52.126Z,61.10
2019-03-13T05:28:30.300Z,65.32
2019-03-13T05:31:07.194Z,60.88
2019-03-13T05:33:43.948Z,66.67
2019-03-13T05:36:20.834Z,66.22
2019-03-13T05:38:57.776Z,67.37
2019-03-13T05:41:34.849Z,62.48
2019-03-13T05:44:12.159Z,60.12
2019-03-13T05:46:49.343Z,59.88
2019-03-13T05:49:25.994Z,60.40
2019-03-13T05:52:02.876Z,62.93
2019-03-13T05:54:40.290Z,63.40
2019-03-13T05:57:16.964Z,61.80
2019-03-13T05:59:53.791Z,66.07
2019-03-13T06:02:30.842Z,57.70
2019-03-13T06:05:08.086Z,62.58
2019-03-13T06:07:45.527Z,59.23
2019-03-13T06:10:21.856Z,56.45
2019-03-13T06:12:58.969Z,56.77
2019-03-13T06:15:36.514Z,57.73
2019-03-13T06:18:13.673Z,53.95
2019-03-13T06:20:50.315Z,51.15
2019-03-13T06:23:27.490Z,51.25
2019-03-13T06:26:04.155Z,47.17
2019-03-13T06:28:42.473Z,46.30
2019-03-13T06:31:19.551Z,50.65
2019-03-13T06:33:57.125Z,51.28
2019-03-13T06:36:33.590Z,49.67
2019-03-13T06:39:11.011Z,50.45
2019-03-13T06:41:47.582Z,52.83
2019-03-13T06:44:24.419Z,54.85
2019-03-13T06:47:01.661Z,51.02
2019-03-13T06:49:38.301Z,50.75
2019-03-13T06:52:14.391Z,49.90
2019-03-13T06:54:51.940Z,50.90
2019-03-13T07:01:39.589Z,73.87
2019-03-13T07:04:46.972Z,81.02
2019-03-13T07:07:32.812Z,78.25
2019-03-13T07:10:17.659Z,81.65
2019-03-13T07:13:12.016Z,76.07
2019-03-13T07:16:12.962Z,76.35
2019-03-13T07:19:10.716Z,78.25
2019-03-13T07:22:14.530Z,74.65
2019-03-13T07:25:14.857Z,76.25
2019-03-13T07:28:09.770Z,71.05
2019-03-13T07:31:01.303Z,72.95
2019-03-13T07:33:54.959Z,59.65
2019-03-13T07:36:49.671Z,58.78
2019-03-13T07:39:48.413Z,59.40
2019-03-13T07:42:52.356Z,62.70
2019-03-13T07:45:42.276Z,53.28
2019-03-13T07:48:35.916Z,52.08
2019-03-13T07:51:30.766Z,55.73
2019-03-13T07:54:22.469Z,52.30
2019-03-13T07:57:24.420Z,49.77
2019-03-13T08:00:17.882Z,50.70
2019-03-13T08:03:12.861Z,49.63
2019-03-13T08:06:16.385Z,52.40
2019-03-13T08:09:09.671Z,51.35
2019-03-13T08:12:13.356Z,50.17
2019-03-13T08:15:06.948Z,52.90
2019-03-13T08:18:02.065Z,49.50
2019-03-13T08:21:02.881Z,53.17
2019-03-13T08:23:56.048Z,46.53
2019-03-13T08:26:40.571Z,50.88
2019-03-13T08:29:35.083Z,45.80
2019-03-13T08:32:28.757Z,46.98
2019-03-13T08:35:26.131Z,44.35
2019-03-13T08:38:08.344Z,46.85
2019-03-13T08:40:56.781Z,47.58
2019-03-13T08:43:49.846Z,43.48
2019-03-13T08:46:52.023Z,45.48
2019-03-13T08:49:52.841Z,44.30
2019-03-13T08:52:47.970Z,45.03
2019-03-13T08:55:42.802Z,44.95
2019-03-13T08:58:37.036Z,39.67
2019-03-13T09:01:29.824Z,39.58
2019-03-13T09:04:25.099Z,41.68
2019-03-13T09:07:22.778Z,36.63
2019-03-13T09:10:07.626Z,38.73
2019-03-13T09:12:53.916Z,37.28
2019-03-13T09:15:39.193Z,37.63
2019-03-13T09:18:24.619Z,36.28
2019-03-13T09:21:19.300Z,36.05
2019-03-13T09:28:20.272Z,31.97
2019-03-13T09:31:07.532Z,32.75
2019-03-13T09:33:52.744Z,34.30
2019-03-13T09:36:47.811Z,33.65
2019-03-13T09:39:42.346Z,28.98
2019-03-13T09:42:47.240Z,27.98
2019-03-13T09:45:55.008Z,30.90
2019-03-13T09:48:40.406Z,29.32
2019-03-13T09:51:28.953Z,27.48
2019-03-13T09:54:20.222Z,27.05
2019-03-13T09:57:24.153Z,26.85
2019-03-13T10:00:22.061Z,107.85
2019-03-13T10:03:19.808Z,29.15
2019-03-13T10:06:05.781Z,601.42
2019-03-13T10:09:09.612Z,382.75
2019-03-13T10:12:08.008Z,88.85
2019-03-13T10:14:55.476Z,47.70
2019-03-13T10:17:43.442Z,47.90
2019-03-13T10:20:47.513Z,33.20
2019-03-13T10:23:49.857Z,27.95
2019-03-13T10:26:47.309Z,28.40
2019-03-13T10:29:33.818Z,26.93
2019-03-13T10:32:26.476Z,26.65
2019-03-13T10:35:23.705Z,31.60
2019-03-13T10:38:16.875Z,30.15
2019-03-13T10:41:03.831Z,74.20
2019-03-13T10:44:01.393Z,31.55
2019-03-13T10:46:47.192Z,37.95
2019-03-13T10:49:44.330Z,58.70
2019-03-13T10:52:42.383Z,55.15
2019-03-13T10:55:26.323Z,58.08
2019-03-13T10:58:36.478Z,147.13
2019-03-13T11:01:29.152Z,98.87
2019-03-13T11:04:22.936Z,52.45
2019-03-13T11:07:23.746Z,48.25
2019-03-13T11:10:17.431Z,37.75
2019-03-13T11:13:07.936Z,43.20
2019-03-13T11:16:21.861Z,41.45
2019-03-13T11:19:13.832Z,33.83
2019-03-13T11:22:06.008Z,32.95
2019-03-13T11:24:49.351Z,39.73
2019-03-13T11:27:44.590Z,46.05
2019-03-13T11:30:49.238Z,55.45
2019-03-13T11:34:03.158Z,39.73
2019-03-13T11:37:01.394Z,42.78
2019-03-13T11:39:49.982Z,44.53
2019-03-13T11:42:42.630Z,48.20
2019-03-13T11:45:44.092Z,45.98
2019-03-13T11:48:44.843Z,47.88
2019-03-13T11:51:37.734Z,37.30
2019-03-13T11:54:34.806Z,46.48
2019-03-13T11:57:21.906Z,48.28
2019-03-13T12:00:08.673Z,42.65
2019-03-13T12:02:52.962Z,54.60
2019-03-13T12:05:37.681Z,51.35
2019-03-13T12:08:31.630Z,57.33
2019-03-13T12:11:15.103Z,53.38
2019-03-13T12:14:10.666Z,52.67
2019-03-13T12:17:14.937Z,55.40
2019-03-13T12:20:09.750Z,56.28
2019-03-13T12:23:15.985Z,55.98
2019-03-13T12:26:10.815Z,50.78
2019-03-13T12:29:04.064Z,55.45
2019-03-13T12:31:58.759Z,61.92
2019-03-13T12:34:51.735Z,55.17
2019-03-13T12:37:45.226Z,58.58
2019-03-13T12:40:56.062Z,61.50
2019-03-13T12:43:51.475Z,58.70
2019-03-13T12:46:35.498Z,59.27
2019-03-13T12:49:23.624Z,60.83
2019-03-13T12:52:31.894Z,50.83
2019-03-13T12:55:26.124Z,44.53
2019-03-13T12:58:20.236Z,58.78
2019-03-13T13:01:21.002Z,54.00
2019-03-13T13:04:15.486Z,46.85
2019-03-13T13:07:07.660Z,43.50
2019-03-13T13:10:13.577Z,52.33
2019-03-13T13:13:16.670Z,42.38
2019-03-13T13:16:12.096Z,43.08
2019-03-13T13:18:58.203Z,43.02
2019-03-13T13:21:35.565Z,40.67
2019-03-13T13:24:11.615Z,42.93
2019-03-13T13:26:50.383Z,43.73
2019-03-13T13:29:27.057Z,41.65
2019-03-13T13:32:03.812Z,44.15
2019-03-13T13:34:39.951Z,42.38
2019-03-13T13:37:16.869Z,37.67
2019-03-13T13:39:53.043Z,39.70
2019-03-13T13:42:29.565Z,38.23
2019-03-13T13:45:06.634Z,34.92
2019-03-13T13:47:43.302Z,30.35
2019-03-13T13:50:19.697Z,39.50
2019-03-13T13:52:56.776Z,30.27
2019-03-13T13:55:33.656Z,36.20
2019-03-13T13:58:10.540Z,31.90
2019-03-13T14:00:47.085Z,35.05
2019-03-13T14:03:24.715Z,31.02
2019-03-13T14:06:01.359Z,32.13
2019-03-13T14:08:38.235Z,30.92
2019-03-13T14:11:14.726Z,27.27
2019-03-13T14:13:51.215Z,28.60
2019-03-13T14:16:27.928Z,30.62
2019-03-13T14:19:04.622Z,35.60
2019-03-13T14:21:41.476Z,32.78
2019-03-13T14:24:17.999Z,29.92
2019-03-13T14:26:55.087Z,29.70
2019-03-13T14:29:31.518Z,26.45
2019-03-13T14:32:08.242Z,26.40
2019-03-13T14:34:45.757Z,36.25
2019-03-13T14:37:22.394Z,29.02
2019-03-13T14:40:16.853Z,37.90
2019-03-13T14:42:53.643Z,35.08
2019-03-13T14:45:30.408Z,31.68
2019-03-13T14:48:07.241Z,30.72
2019-03-13T14:50:43.921Z,32.08
2019-03-13T14:53:20.806Z,38.15
2019-03-13T14:55:57.977Z,32.93
2019-03-13T14:58:34.717Z,36.63
2019-03-13T15:01:11.619Z,41.35
2019-03-13T15:03:47.801Z,45.90
2019-03-13T15:06:24.660Z,40.88
2019-03-13T15:09:01.055Z,41.55
2019-03-13T15:11:39.552Z,47.38
2019-03-13T15:14:16.370Z,41.23
2019-03-13T15:16:53.496Z,45.90
2019-03-13T15:19:30.680Z,44.45
2019-03-13T15:22:07.853Z,38.17
2019-03-13T15:24:44.659Z,48.25
2019-03-13T15:27:21.074Z,44.13
2019-03-13T15:29:58.506Z,76.35
2019-03-13T15:32:35.176Z,78.87
2019-03-13T15:35:12.210Z,60.00
2019-03-13T15:37:48.843Z,66.50
2019-03-13T15:40:26.856Z,64.15
2019-03-13T15:43:06.507Z,53.55
2019-03-13T15:45:43.418Z,50.67
2019-03-13T15:48:19.794Z,49.50
2019-03-13T15:50:57.179Z,49.98
2019-03-13T15:53:33.875Z,45.83
2019-03-13T15:56:10.900Z,45.92
2019-03-13T15:58:47.789Z,47.62
2019-03-13T16:01:24.815Z,47.27
2019-03-13T16:04:01.517Z,44.23
2019-03-13T16:06:38.121Z,51.25
2019-03-13T16:09:15.058Z,46.05
2019-03-13T16:11:52.050Z,52.53
2019-03-13T16:14:29.164Z,52.03
2019-03-13T16:17:06.106Z,44.50
2019-03-13T16:19:42.419Z,52.30
2019-03-13T16:22:20.233Z,44.03
2019-03-13T16:24:56.391Z,56.92
2019-03-13T16:27:32.973Z,57.30
2019-03-13T16:30:11.428Z,57.85
2019-03-13T16:32:48.128Z,55.03
2019-03-13T16:35:26.463Z,54.10
2019-03-13T16:38:02.783Z,52.35
2019-03-13T16:40:39.334Z,55.88
2019-03-13T16:43:16.046Z,57.08
2019-03-13T16:45:52.629Z,57.62
2019-03-13T16:48:29.589Z,66.75
2019-03-13T16:51:07.248Z,57.60
2019-03-13T16:53:44.387Z,58.83
2019-03-13T16:56:21.261Z,57.38
2019-03-13T16:58:58.374Z,59.33
2019-03-13T17:01:35.093Z,59.85
2019-03-13T17:04:12.376Z,56.30
2019-03-13T17:06:48.851Z,64.97
2019-03-13T17:09:25.179Z,62.53
2019-03-13T17:12:01.866Z,55.52
2019-03-13T17:14:38.739Z,57.70
2019-03-13T17:17:15.305Z,52.38
2019-03-13T17:19:53.142Z,60.63
2019-03-13T17:22:30.013Z,53.87
2019-03-13T17:25:07.455Z,70.00
2019-03-13T17:27:44.966Z,62.48
2019-03-13T17:30:26.009Z,59.15
2019-03-13T17:33:03.403Z,53.33
2019-03-13T17:35:40.453Z,64.85
2019-03-13T17:38:17.144Z,54.50
2019-03-13T17:40:53.846Z,55.60
2019-03-13T17:43:39.012Z,58.50
2019-03-13T17:46:09.171Z,58.68
2019-03-13T17:48:46.207Z,58.92
2019-03-13T17:51:22.784Z,63.78
2019-03-13T17:53:59.362Z,59.23
2019-03-13T17:56:36.280Z,53.42
2019-03-13T17:59:13.486Z,60.70
2019-03-13T18:01:50.477Z,54.67
2019-03-13T18:04:27.187Z,67.03
2019-03-13T18:07:04.023Z,55.03
2019-03-13T18:09:40.451Z,64.70
2019-03-13T18:12:17.686Z,60.03
2019-03-13T18:14:54.405Z,65.10
2019-03-13T18:17:31.372Z,60.40
2019-03-13T18:20:09.492Z,63.70
2019-03-13T18:22:46.295Z,60.58
2019-03-13T18:25:22.688Z,61.92
2019-03-13T18:28:00.043Z,58.23
2019-03-13T18:30:36.683Z,57.75
2019-03-13T18:33:14.560Z,65.12
2019-03-13T18:35:51.355Z,54.03
2019-03-13T18:38:27.603Z,62.80
2019-03-13T18:41:04.546Z,63.05
2019-03-13T18:43:41.132Z,70.50
2019-03-13T18:46:17.978Z,61.80
2019-03-13T18:48:54.397Z,60.45
2019-03-13T18:51:31.328Z,62.98
2019-03-13T18:54:07.981Z,59.65
2019-03-13T18:56:45.000Z,66.53
2019-03-13T18:59:22.765Z,60.45
2019-03-13T19:01:59.416Z,64.75
2019-03-13T19:04:36.246Z,66.17
2019-03-13T19:07:12.960Z,70.28
2019-03-13T19:09:50.018Z,66.10
2019-03-13T19:12:26.881Z,66.42
2019-03-13T19:15:03.847Z,61.77
2019-03-13T19:17:40.783Z,63.50
2019-03-13T19:20:18.259Z,68.75
2019-03-13T19:22:56.158Z,61.70
2019-03-13T19:25:33.255Z,65.83
2019-03-13T19:28:10.030Z,71.28
2019-03-13T19:30:47.267Z,64.17
2019-03-13T19:33:25.199Z,60.55
2019-03-13T19:36:02.608Z,99.07
2019-03-13T19:38:41.235Z,74.42
2019-03-13T19:41:17.977Z,77.27
2019-03-13T19:43:54.562Z,80.55
2019-03-13T19:46:32.272Z,72.87
2019-03-13T19:49:09.095Z,72.78
2019-03-13T19:51:45.718Z,66.47
2019-03-13T19:54:22.677Z,61.58
2019-03-13T19:56:59.790Z,71.90
2019-03-13T19:59:37.227Z,69.97
2019-03-13T20:02:14.709Z,64.10
2019-03-13T20:04:51.736Z,69.70
2019-03-13T20:07:28.232Z,73.15
2019-03-13T20:10:06.249Z,73.72
2019-03-13T20:12:42.847Z,71.62
2019-03-13T20:15:21.089Z,69.32
2019-03-13T20:17:58.406Z,66.95
2019-03-13T20:20:34.614Z,70.97
2019-03-13T20:23:11.937Z,64.27
2019-03-13T20:25:49.289Z,72.92
2019-03-13T20:28:26.598Z,72.50
2019-03-13T20:31:03.416Z,65.92
2019-03-13T20:33:40.762Z,71.67
2019-03-13T20:36:17.658Z,64.82
2019-03-13T20:38:54.210Z,73.70
2019-03-13T20:41:31.178Z,77.22
2019-03-13T20:44:08.001Z,77.32
2019-03-13T20:46:45.095Z,71.53
2019-03-13T20:49:22.051Z,76.00
2019-03-13T20:51:58.786Z,71.60
2019-03-13T20:54:35.751Z,77.10
2019-03-13T20:57:12.494Z,83.07
2019-03-13T20:59:49.490Z,68.00
2019-03-13T21:02:26.618Z,74.50
2019-03-13T21:05:04.045Z,77.30
2019-03-13T21:07:41.907Z,77.45
2019-03-13T21:10:19.155Z,80.30
2019-03-13T21:12:56.782Z,95.40
2019-03-13T21:15:34.172Z,95.67
2019-03-13T21:18:10.958Z,94.72
2019-03-13T21:20:47.618Z,107.83
2019-03-13T21:23:24.359Z,96.20
2019-03-13T21:26:02.210Z,87.90
2019-03-13T21:28:39.275Z,107.10
2019-03-13T21:31:16.174Z,103.53
2019-03-13T21:33:52.965Z,98.45
2019-03-13T21:36:30.277Z,109.25
2019-03-13T21:39:08.019Z,112.40
2019-03-13T21:41:46.139Z,103.17
2019-03-13T21:44:22.841Z,106.35
2019-03-13T21:46:59.682Z,99.28
2019-03-13T21:49:36.154Z,179.30
2019-03-13T21:52:12.597Z,190.07
2019-03-13T21:54:51.953Z,207.70
2019-03-13T21:57:27.455Z,137.40
2019-03-13T22:00:03.784Z,158.63
2019-03-13T22:02:42.177Z,177.00
2019-03-13T22:05:25.679Z,173.30
2019-03-13T22:07:58.131Z,156.52
2019-03-13T22:10:34.805Z,160.78
2019-03-13T22:13:12.579Z,138.40
2019-03-13T22:15:49.165Z,151.05
2019-03-13T22:18:25.660Z,154.10
2019-03-13T22:21:02.357Z,149.93
2019-03-13T22:23:39.114Z,129.55
2019-03-13T22:26:16.089Z,120.08
2019-03-13T22:28:53.970Z,115.55
2019-03-13T22:31:30.454Z,122.95
2019-03-13T22:34:07.669Z,110.57
2019-03-13T22:36:44.706Z,108.17
2019-03-13T22:39:21.544Z,112.05
2019-03-13T22:41:58.364Z,114.28
2019-03-13T22:44:35.479Z,95.38
2019-03-13T22:47:12.295Z,99.75
2019-03-13T22:49:49.492Z,89.35
2019-03-13T22:52:25.973Z,92.50
2019-03-13T22:55:02.686Z,88.42
2019-03-13T22:57:39.455Z,92.33
2019-03-13T23:00:34.188Z,90.07
2019-03-13T23:03:11.880Z,82.33
2019-03-13T23:05:49.943Z,89.60
2019-03-13T23:08:26.599Z,85.42
2019-03-13T23:11:02.978Z,82.70
2019-03-13T23:13:39.906Z,92.12
2019-03-13T23:16:18.691Z,85.17
2019-03-13T23:18:55.869Z,96.02
2019-03-13T23:21:38.838Z,93.85
2019-03-13T23:24:15.629Z,80.83
2019-03-13T23:26:52.329Z,87.05
2019-03-13T23:29:29.226Z,81.63
2019-03-13T23:32:06.197Z,80.07
2019-03-13T23:34:42.792Z,121.67
2019-03-13T23:37:19.912Z,86.40
2019-03-13T23:39:56.479Z,101.55
2019-03-13T23:42:33.452Z,102.20
2019-03-13T23:45:10.501Z,126.27
2019-03-13T23:47:47.187Z,126.50
2019-03-13T23:50:25.042Z,150.87
2019-03-13T23:53:02.310Z,157.32
2019-03-13T23:55:39.199Z,144.40
2019-03-13T23:58:16.012Z,161.12
